Time;durP1;ratioP1;P1;durP2;ratioP2;P2;SDS_P1;SDS_P2;PMS_P1;PMS_P2;Temp;Humidity;BMP_temperature;BMP_pressure;BME280_temperature;BME280_humidity;BME280_pressure;Samples;Min_cycle;Max_cycle;Signal;HPM_P1;HPM_P2
2022/04/16 00:01:04;;;;;;;8.93;4.03;;;;;;;;;;5112074;28;20064;-74
2022/04/16 00:03:31;;;;;;;7.68;3.72;;;;;;;;;;5111682;28;20028;-73
2022/04/16 00:05:57;;;;;;;9.60;4.22;;;;;;;;;;5111511;28;20043;-72
2022/04/16 00:08:28;;;;;;;6.40;3.90;;;;;;;;;;5111609;28;20032;-68
2022/04/16 00:10:54;;;;;;;9.90;3.88;;;;;;;;;;5111586;28;20028;-68
2022/04/16 00:13:22;;;;;;;8.07;3.88;;;;;;;;;;5111623;28;20054;-67
2022/04/16 00:15:54;;;;;;;7.95;3.90;;;;;;;;;;5111416;28;20031;-74
2022/04/16 00:18:20;;;;;;;9.73;4.35;;;;;;;;;;5111441;28;20123;-68
2022/04/16 00:20:49;;;;;;;6.80;4.15;;;;;;;;;;5111700;28;20050;-69
2022/04/16 00:23:19;;;;;;;7.72;3.95;;;;;;;;;;5111702;28;20027;-76
2022/04/16 00:25:45;;;;;;;8.00;4.30;;;;;;;;;;5111139;28;20134;-68
2022/04/16 00:28:11;;;;;;;10.68;4.20;;;;;;;;;;5111144;28;20447;-73
2022/04/16 00:30:40;;;;;;;8.68;3.67;;;;;;;;;;5111017;27;20047;-75
2022/04/16 00:33:12;;;;;;;7.80;3.70;;;;;;;;;;5110201;28;20026;-68
2022/04/16 00:35:40;;;;;;;7.28;4.20;;;;;;;;;;5110607;28;20030;-72
2022/04/16 00:38:05;;;;;;;9.90;4.00;;;;;;;;;;5111174;28;20023;-73
2022/04/16 00:40:31;;;;;;;11.55;3.40;;;;;;;;;;5111255;28;20027;-74
2022/04/16 00:42:58;;;;;;;8.77;3.20;;;;;;;;;;5111005;28;20024;-68
2022/04/16 00:45:25;;;;;;;6.15;2.78;;;;;;;;;;5110793;28;20035;-74
2022/04/16 00:47:50;;;;;;;5.50;2.90;;;;;;;;;;5110908;27;20023;-75
2022/04/16 00:50:16;;;;;;;5.07;2.75;;;;;;;;;;5111116;28;20031;-69
2022/04/16 00:52:44;;;;;;;7.90;2.53;;;;;;;;;;5111102;28;20445;-72
2022/04/16 00:55:10;;;;;;;6.15;2.40;;;;;;;;;;5110946;28;20028;-73
2022/04/16 00:57:40;;;;;;;5.38;2.30;;;;;;;;;;5110727;28;20062;-76
2022/04/16 01:00:08;;;;;;;6.57;2.77;;;;;;;;;;5110687;27;20384;-69
2022/04/16 01:02:35;;;;;;;7.15;3.60;;;;;;;;;;5110781;28;20336;-73
2022/04/16 01:05:01;;;;;;;7.85;3.90;;;;;;;;;;5110694;28;20027;-75
2022/04/16 01:07:26;;;;;;;9.32;4.00;;;;;;;;;;5110661;28;20028;-75
2022/04/16 01:09:52;;;;;;;8.57;3.97;;;;;;;;;;5111229;28;20417;-75
2022/04/16 01:12:18;;;;;;;8.15;4.10;;;;;;;;;;5110713;28;20035;-68
2022/04/16 01:14:45;;;;;;;8.45;3.88;;;;;;;;;;5110567;28;20027;-74
2022/04/16 01:17:12;;;;;;;6.28;3.13;;;;;;;;;;5109242;28;20042;-73
2022/04/16 01:19:37;;;;;;;7.93;2.97;;;;;;;;;;5110581;28;20103;-69
2022/04/16 01:22:05;;;;;;;5.45;3.03;;;;;;;;;;5110664;28;20111;-72
2022/04/16 01:24:31;;;;;;;8.02;3.30;;;;;;;;;;5110334;28;20087;-72
2022/04/16 01:26:58;;;;;;;8.18;3.20;;;;;;;;;;5110322;28;20027;-75
2022/04/16 01:29:24;;;;;;;6.20;3.17;;;;;;;;;;5110478;28;20032;-76
2022/04/16 01:31:49;;;;;;;6.03;2.95;;;;;;;;;;5110348;28;20042;-67
2022/04/16 01:34:17;;;;;;;7.43;3.15;;;;;;;;;;5110442;28;20157;-71
2022/04/16 01:36:43;;;;;;;7.30;2.92;;;;;;;;;;5110814;28;20047;-74
2022/04/16 01:39:08;;;;;;;5.43;3.20;;;;;;;;;;5110289;28;20047;-69
2022/04/16 01:41:35;;;;;;;5.25;2.90;;;;;;;;;;5110919;28;20703;-69
2022/04/16 01:44:01;;;;;;;6.40;3.63;;;;;;;;;;5110682;28;20015;-76
2022/04/16 01:46:27;;;;;;;7.38;3.50;;;;;;;;;;5110113;28;20054;-72
2022/04/16 01:48:55;;;;;;;6.70;3.10;;;;;;;;;;5114042;28;20065;-74
2022/04/16 01:51:22;;;;;;;6.47;3.33;;;;;;;;;;5114331;28;20020;-69
2022/04/16 01:53:48;;;;;;;9.63;3.00;;;;;;;;;;5114298;28;20026;-70
2022/04/16 01:56:14;;;;;;;7.63;2.97;;;;;;;;;;5114046;28;20027;-73
2022/04/16 01:58:41;;;;;;;6.78;3.00;;;;;;;;;;5114129;28;20023;-73
2022/04/16 02:01:07;;;;;;;5.50;3.00;;;;;;;;;;5114222;28;20100;-73
2022/04/16 02:03:33;;;;;;;6.38;3.08;;;;;;;;;;5114316;27;20054;-67
2022/04/16 02:05:59;;;;;;;6.05;2.90;;;;;;;;;;5114024;28;20063;-73
2022/04/16 02:08:25;;;;;;;6.50;2.80;;;;;;;;;;5113692;28;20593;-72
2022/04/16 02:10:50;;;;;;;4.38;2.53;;;;;;;;;;5114297;28;20016;-71
2022/04/16 02:13:16;;;;;;;7.22;2.70;;;;;;;;;;5114114;28;20019;-73
2022/04/16 02:15:42;;;;;;;6.90;2.80;;;;;;;;;;5113764;28;20047;-68
2022/04/16 02:18:07;;;;;;;6.68;3.15;;;;;;;;;;5113855;28;20032;-68
2022/04/16 02:20:35;;;;;;;7.03;2.97;;;;;;;;;;5114530;28;20084;-68
2022/04/16 02:23:01;;;;;;;5.25;2.90;;;;;;;;;;5113656;27;20027;-68
2022/04/16 02:25:27;;;;;;;6.60;3.08;;;;;;;;;;5113402;28;20393;-68
2022/04/16 02:27:52;;;;;;;4.30;2.38;;;;;;;;;;5113433;28;20419;-69
2022/04/16 02:30:19;;;;;;;6.05;2.50;;;;;;;;;;5112395;28;20024;-69
2022/04/16 02:32:52;;;;;;;4.93;2.65;;;;;;;;;;5113758;28;20097;-73
2022/04/16 02:35:18;;;;;;;4.93;2.70;;;;;;;;;;5113712;28;20388;-72
2022/04/16 02:37:44;;;;;;;5.85;3.03;;;;;;;;;;5113414;28;20445;-72
2022/04/16 02:40:10;;;;;;;9.38;2.95;;;;;;;;;;5113290;28;20023;-73
2022/04/16 02:42:37;;;;;;;6.53;2.83;;;;;;;;;;5113236;28;20032;-75
2022/04/16 02:47:52;;;;;;;5.30;2.50;;;;;;;;;;5113388;28;20521;-72
2022/04/16 02:50:19;;;;;;;7.57;2.50;;;;;;;;;;5113366;28;20020;-74
2022/04/16 02:52:46;;;;;;;6.00;2.47;;;;;;;;;;5113332;27;20149;-69
2022/04/16 02:55:15;;;;;;;5.05;2.53;;;;;;;;;;5113279;28;20518;-72
2022/04/16 02:57:42;;;;;;;7.10;2.65;;;;;;;;;;5113041;28;20533;-69
2022/04/16 03:00:09;;;;;;;7.28;2.47;;;;;;;;;;5111946;28;20030;-70
2022/04/16 03:02:35;;;;;;;4.78;2.28;;;;;;;;;;5113337;28;20047;-72
2022/04/16 03:05:02;;;;;;;6.05;2.75;;;;;;;;;;5112895;28;20391;-70
2022/04/16 03:07:27;;;;;;;4.32;2.30;;;;;;;;;;5112842;28;20112;-70
2022/04/16 03:09:53;;;;;;;8.50;2.55;;;;;;;;;;5112943;28;20111;-69
2022/04/16 03:12:18;;;;;;;6.75;2.83;;;;;;;;;;5112975;28;20099;-72
2022/04/16 03:17:35;;;;;;;8.80;2.80;;;;;;;;;;5112510;28;20085;-67
2022/04/16 03:20:06;;;;;;;7.32;2.58;;;;;;;;;;5112730;28;20024;-71
2022/04/16 03:22:34;;;;;;;7.28;2.50;;;;;;;;;;5112707;28;20039;-71
2022/04/16 03:25:04;;;;;;;8.48;2.75;;;;;;;;;;5112697;28;20051;-72
2022/04/16 03:27:30;;;;;;;10.60;2.60;;;;;;;;;;5112407;28;20031;-69
2022/04/16 03:29:55;;;;;;;5.93;2.47;;;;;;;;;;5112317;28;20475;-69
2022/04/16 03:32:21;;;;;;;6.95;2.63;;;;;;;;;;5112295;28;20032;-73
2022/04/16 03:34:46;;;;;;;4.82;2.33;;;;;;;;;;5112289;28;20027;-71
2022/04/16 03:37:12;;;;;;;4.72;2.38;;;;;;;;;;5112266;28;20528;-69
2022/04/16 03:39:38;;;;;;;6.25;2.53;;;;;;;;;;5112063;28;20024;-68
2022/04/16 03:42:04;;;;;;;6.35;2.38;;;;;;;;;;5112402;28;20429;-68
2022/04/16 03:44:29;;;;;;;5.55;2.60;;;;;;;;;;5112186;28;20096;-67
2022/04/16 03:46:55;;;;;;;8.10;2.60;;;;;;;;;;5112268;28;20323;-73
2022/04/16 03:49:21;;;;;;;5.18;2.70;;;;;;;;;;5112015;28;20027;-73
2022/04/16 03:51:46;;;;;;;4.20;2.50;;;;;;;;;;5112352;28;20085;-69
2022/04/16 04:02:24;;;;;;;5.25;2.67;;;;;;;;;;5112200;28;20398;-68
2022/04/16 04:04:50;;;;;;;3.97;2.40;;;;;;;;;;5111847;28;20467;-71
2022/04/16 04:07:16;;;;;;;7.30;2.70;;;;;;;;;;5111711;28;20024;-73
2022/04/16 04:09:42;;;;;;;10.20;2.63;;;;;;;;;;5111378;28;20424;-72
2022/04/16 04:12:11;;;;;;;8.98;2.50;;;;;;;;;;5111893;28;20024;-74
2022/04/16 04:14:41;;;;;;;8.35;2.50;;;;;;;;;;5111552;28;20016;-69
2022/04/16 04:17:08;;;;;;;6.53;2.70;;;;;;;;;;5111918;28;20023;-68
2022/04/16 04:19:35;;;;;;;5.43;2.58;;;;;;;;;;5111577;28;20134;-73
2022/04/16 04:22:04;;;;;;;7.53;2.80;;;;;;;;;;5111829;28;20020;-67
2022/04/16 04:24:30;;;;;;;4.68;2.42;;;;;;;;;;5111261;28;20047;-71
2022/04/16 04:27:00;;;;;;;6.72;2.58;;;;;;;;;;5111460;28;20023;-72
2022/04/16 04:29:28;;;;;;;5.00;2.60;;;;;;;;;;5111049;28;20038;-72
2022/04/16 04:31:55;;;;;;;5.82;2.67;;;;;;;;;;5111149;28;20106;-68
2022/04/16 04:34:20;;;;;;;7.95;2.50;;;;;;;;;;5111448;28;20106;-71
2022/04/16 04:36:46;;;;;;;7.50;2.80;;;;;;;;;;5111511;28;20376;-71
2022/04/16 04:39:12;;;;;;;4.90;2.70;;;;;;;;;;5111342;28;20106;-68
2022/04/16 04:41:44;;;;;;;6.47;2.80;;;;;;;;;;5111211;28;20409;-68
2022/04/16 04:44:11;;;;;;;6.47;2.80;;;;;;;;;;5110729;28;20391;-71
2022/04/16 04:46:37;;;;;;;5.43;3.03;;;;;;;;;;5109463;28;20035;-68
2022/04/16 04:49:03;;;;;;;8.18;2.60;;;;;;;;;;5110985;28;20031;-72
2022/04/16 04:51:28;;;;;;;7.97;3.17;;;;;;;;;;5110962;28;20251;-68
2022/04/16 04:53:53;;;;;;;8.13;3.08;;;;;;;;;;5110885;28;20495;-72
2022/04/16 04:56:19;;;;;;;7.13;3.10;;;;;;;;;;5110989;28;20486;-72
2022/04/16 04:58:44;;;;;;;7.28;3.17;;;;;;;;;;5110695;28;20062;-73
2022/04/16 05:01:10;;;;;;;8.23;2.92;;;;;;;;;;5110969;28;20154;-70
2022/04/16 05:03:35;;;;;;;7.88;2.90;;;;;;;;;;5110696;28;20027;-69
2022/04/16 05:06:00;;;;;;;6.05;2.90;;;;;;;;;;5110698;28;20030;-71
2022/04/16 05:08:26;;;;;;;5.97;2.88;;;;;;;;;;5110741;28;20110;-69
2022/04/16 05:10:51;;;;;;;7.25;3.08;;;;;;;;;;5110716;28;20020;-69
2022/04/16 05:13:17;;;;;;;7.55;3.15;;;;;;;;;;5110827;28;20060;-70
2022/04/16 05:15:42;;;;;;;9.65;3.00;;;;;;;;;;5110629;28;20115;-74
2022/04/16 05:18:07;;;;;;;9.07;3.38;;;;;;;;;;5110794;28;20102;-72
2022/04/16 05:20:33;;;;;;;7.88;3.40;;;;;;;;;;5110436;27;20506;-70
2022/04/16 05:22:58;;;;;;;5.05;3.00;;;;;;;;;;5110159;28;20028;-71
2022/04/16 05:25:24;;;;;;;8.73;2.97;;;;;;;;;;5110430;28;20051;-72
2022/04/16 05:27:49;;;;;;;6.32;3.00;;;;;;;;;;5110543;28;20276;-73
2022/04/16 05:30:22;;;;;;;7.43;3.03;;;;;;;;;;5110215;28;20016;-72
2022/04/16 05:32:50;;;;;;;9.27;3.00;;;;;;;;;;5110493;28;20465;-70
2022/04/16 05:35:16;;;;;;;6.88;3.05;;;;;;;;;;5110282;28;20020;-73
2022/04/16 05:37:42;;;;;;;6.03;2.83;;;;;;;;;;5110331;28;20028;-68
2022/04/16 05:40:09;;;;;;;9.02;3.10;;;;;;;;;;5110438;28;20106;-68
2022/04/16 05:42:42;;;;;;;5.45;2.80;;;;;;;;;;5110431;28;20032;-72
2022/04/16 05:45:08;;;;;;;8.07;3.00;;;;;;;;;;5110088;28;20035;-69
2022/04/16 05:47:33;;;;;;;12.60;3.60;;;;;;;;;;5110440;28;20020;-74
2022/04/16 05:49:58;;;;;;;12.93;3.28;;;;;;;;;;5110010;28;20084;-68
2022/04/16 05:52:25;;;;;;;10.30;3.25;;;;;;;;;;5110221;28;20023;-70
2022/04/16 05:54:51;;;;;;;11.07;3.15;;;;;;;;;;5110115;28;20433;-73
2022/04/16 05:57:17;;;;;;;16.75;3.28;;;;;;;;;;5110228;28;20054;-74
2022/04/16 05:59:43;;;;;;;7.50;3.28;;;;;;;;;;5109817;28;20032;-68
2022/04/16 06:02:10;;;;;;;12.98;3.60;;;;;;;;;;5110201;28;20024;-69
2022/04/16 06:04:35;;;;;;;10.30;3.08;;;;;;;;;;5110023;28;20367;-68
2022/04/16 06:07:01;;;;;;;5.63;2.83;;;;;;;;;;5110070;28;20081;-71
2022/04/16 06:09:28;;;;;;;9.73;3.00;;;;;;;;;;5109556;28;20024;-72
2022/04/16 06:12:00;;;;;;;10.02;3.05;;;;;;;;;;5109960;28;20031;-73
2022/04/16 06:14:25;;;;;;;8.93;2.70;;;;;;;;;;5109900;28;20421;-72
2022/04/16 06:16:50;;;;;;;15.27;3.33;;;;;;;;;;5110130;28;20046;-70
2022/04/16 06:19:16;;;;;;;9.82;2.90;;;;;;;;;;5109911;28;20413;-73
2022/04/16 06:21:41;;;;;;;11.63;3.38;;;;;;;;;;5110521;28;20020;-74
2022/04/16 06:24:07;;;;;;;12.32;2.95;;;;;;;;;;5110003;28;20044;-71
2022/04/16 06:26:32;;;;;;;6.95;2.95;;;;;;;;;;5109786;28;20027;-71
2022/04/16 06:28:57;;;;;;;7.90;2.67;;;;;;;;;;5109717;28;20024;-73
2022/04/16 06:31:23;;;;;;;7.03;3.20;;;;;;;;;;5110247;28;20019;-74
2022/04/16 06:33:48;;;;;;;6.85;2.70;;;;;;;;;;5110135;28;20090;-73
2022/04/16 06:36:14;;;;;;;6.63;2.50;;;;;;;;;;5113775;28;20054;-71
2022/04/16 06:38:39;;;;;;;14.13;2.90;;;;;;;;;;5113607;28;20027;-72
2022/04/16 06:41:05;;;;;;;9.38;2.65;;;;;;;;;;5113297;28;20020;-74
2022/04/16 06:43:30;;;;;;;7.03;2.55;;;;;;;;;;5113348;28;20038;-75
2022/04/16 06:45:55;;;;;;;6.93;2.35;;;;;;;;;;5113215;28;20028;-71
2022/04/16 06:48:21;;;;;;;8.27;2.70;;;;;;;;;;5113427;27;20077;-72
2022/04/16 06:50:46;;;;;;;6.80;2.50;;;;;;;;;;5113304;28;20055;-72
2022/04/16 06:53:12;;;;;;;7.50;2.38;;;;;;;;;;5113296;28;20368;-71
2022/04/16 06:55:37;;;;;;;6.57;2.70;;;;;;;;;;5113371;27;20490;-72
2022/04/16 06:58:03;;;;;;;5.18;2.58;;;;;;;;;;5113006;28;20042;-69
2022/04/16 07:00:29;;;;;;;9.45;2.80;;;;;;;;;;5111444;28;20093;-71
2022/04/16 07:02:55;;;;;;;7.63;2.70;;;;;;;;;;5113342;28;20027;-71
2022/04/16 07:05:20;;;;;;;8.18;3.05;;;;;;;;;;5113057;28;20553;-70
2022/04/16 07:07:46;;;;;;;9.65;2.92;;;;;;;;;;5112984;28;20479;-73
2022/04/16 07:10:11;;;;;;;10.27;2.60;;;;;;;;;;5112938;28;20052;-70
2022/04/16 07:12:37;;;;;;;12.05;2.83;;;;;;;;;;5112979;27;20111;-69
2022/04/16 07:15:03;;;;;;;10.43;2.53;;;;;;;;;;5112800;28;20028;-68
2022/04/16 07:17:29;;;;;;;7.45;2.65;;;;;;;;;;5112744;28;20125;-72
2022/04/16 07:19:54;;;;;;;10.40;2.97;;;;;;;;;;5112194;28;20081;-73
2022/04/16 07:22:20;;;;;;;8.73;2.50;;;;;;;;;;5111169;28;20424;-71
2022/04/16 07:24:48;;;;;;;10.50;2.92;;;;;;;;;;5112682;28;20511;-72
2022/04/16 07:27:14;;;;;;;8.70;2.75;;;;;;;;;;5112554;28;20031;-70
2022/04/16 07:29:39;;;;;;;6.90;2.70;;;;;;;;;;5112392;28;20019;-67
2022/04/16 07:32:05;;;;;;;11.02;3.10;;;;;;;;;;5112589;28;20076;-71
2022/04/16 07:34:31;;;;;;;8.00;2.90;;;;;;;;;;5112767;28;20507;-75
2022/04/16 07:36:56;;;;;;;6.72;2.80;;;;;;;;;;5112343;28;20106;-75
2022/04/16 07:39:22;;;;;;;6.28;2.40;;;;;;;;;;5112173;28;20088;-74
2022/04/16 07:41:49;;;;;;;7.30;2.53;;;;;;;;;;5112350;28;20376;-68
2022/04/16 07:44:15;;;;;;;6.47;2.80;;;;;;;;;;5112488;28;20059;-72
2022/04/16 07:46:40;;;;;;;9.02;2.63;;;;;;;;;;5111861;28;20498;-72
2022/04/16 07:49:06;;;;;;;9.65;2.70;;;;;;;;;;5110872;28;20027;-68
2022/04/16 07:51:31;;;;;;;11.25;3.08;;;;;;;;;;5111938;28;20023;-69
2022/04/16 07:53:57;;;;;;;9.40;3.05;;;;;;;;;;5111976;28;20123;-69
2022/04/16 07:56:24;;;;;;;7.72;2.92;;;;;;;;;;5111953;28;20111;-73
2022/04/16 07:58:50;;;;;;;7.95;3.30;;;;;;;;;;5112052;28;20028;-72
2022/04/16 08:01:15;;;;;;;6.28;2.95;;;;;;;;;;5111764;28;20062;-69
2022/04/16 08:03:41;;;;;;;5.68;2.60;;;;;;;;;;5112033;28;20047;-68
2022/04/16 08:06:06;;;;;;;8.50;2.70;;;;;;;;;;5112128;28;20129;-70
2022/04/16 08:08:32;;;;;;;8.13;2.70;;;;;;;;;;5111752;28;20036;-73
2022/04/16 08:10:58;;;;;;;9.43;2.90;;;;;;;;;;5111844;28;20028;-70
2022/04/16 08:13:23;;;;;;;5.03;2.15;;;;;;;;;;5111683;28;20028;-69
2022/04/16 08:15:50;;;;;;;9.43;2.78;;;;;;;;;;5111314;28;20051;-74
2022/04/16 08:18:16;;;;;;;8.57;2.85;;;;;;;;;;5111813;28;20038;-74
2022/04/16 08:20:42;;;;;;;9.20;2.70;;;;;;;;;;5111622;28;20028;-69
2022/04/16 08:23:08;;;;;;;10.90;2.78;;;;;;;;;;5111574;28;20034;-74
2022/04/16 08:28:00;;;;;;;5.63;2.55;;;;;;;;;;5111657;28;20463;-72
2022/04/16 08:30:26;;;;;;;8.30;2.60;;;;;;;;;;5111138;28;20028;-74
2022/04/16 08:32:52;;;;;;;7.18;2.85;;;;;;;;;;5111255;28;20510;-68
2022/04/16 08:35:18;;;;;;;10.40;2.85;;;;;;;;;;5111428;28;20032;-70
2022/04/16 08:37:45;;;;;;;7.03;2.90;;;;;;;;;;5110134;28;20030;-73
2022/04/16 08:40:12;;;;;;;10.98;4.72;;;;;;;;;;5110848;28;20032;-70
2022/04/16 08:42:39;;;;;;;10.02;4.55;;;;;;;;;;5111360;28;20035;-72
2022/04/16 08:45:06;;;;;;;11.35;4.50;;;;;;;;;;5110850;28;20463;-70
2022/04/16 08:47:32;;;;;;;10.55;2.97;;;;;;;;;;5110880;28;20039;-74
2022/04/16 08:50:03;;;;;;;7.88;3.20;;;;;;;;;;5110763;28;20059;-74
2022/04/16 08:52:30;;;;;;;10.68;2.45;;;;;;;;;;5110994;28;20100;-72
2022/04/16 08:54:58;;;;;;;5.68;2.63;;;;;;;;;;5110975;28;20273;-74
2022/04/16 08:57:24;;;;;;;7.85;2.58;;;;;;;;;;5110490;28;20028;-73
2022/04/16 08:59:54;;;;;;;9.77;2.90;;;;;;;;;;5110585;28;20032;-71
2022/04/16 09:02:21;;;;;;;8.65;2.38;;;;;;;;;;5110707;28;20028;-72
2022/04/16 09:04:47;;;;;;;6.35;2.45;;;;;;;;;;5110638;28;20083;-68
2022/04/16 09:07:13;;;;;;;16.38;4.32;;;;;;;;;;5110823;28;20034;-68
2022/04/16 09:09:39;;;;;;;10.57;4.40;;;;;;;;;;5110733;28;20027;-74
2022/04/16 09:12:18;;;;;;;11.07;4.60;;;;;;;;;;5110436;28;20027;-73
2022/04/16 09:14:45;;;;;;;10.30;4.18;;;;;;;;;;5110548;28;20026;-73
2022/04/16 09:17:15;;;;;;;11.23;3.50;;;;;;;;;;5110724;28;20249;-73
2022/04/16 09:19:41;;;;;;;8.95;3.00;;;;;;;;;;5110512;28;20058;-71
2022/04/16 09:22:08;;;;;;;9.35;2.72;;;;;;;;;;5110397;28;20051;-73
2022/04/16 09:24:49;;;;;;;6.25;2.70;;;;;;;;;;5110153;28;20044;-68
2022/04/16 09:27:15;;;;;;;9.48;2.55;;;;;;;;;;5110530;28;20020;-68
2022/04/16 09:29:43;;;;;;;7.35;2.47;;;;;;;;;;5110289;28;20051;-68
2022/04/16 09:32:09;;;;;;;7.85;2.13;;;;;;;;;;5110708;28;20026;-75
2022/04/16 09:34:34;;;;;;;8.10;2.40;;;;;;;;;;5110263;28;20019;-75
2022/04/16 09:37:22;;;;;;;8.30;2.40;;;;;;;;;;5110317;28;20034;-70
2022/04/16 09:39:49;;;;;;;7.95;2.17;;;;;;;;;;5110200;28;20402;-73
2022/04/16 09:42:27;;;;;;;7.82;3.10;;;;;;;;;;5110364;28;20364;-76
2022/04/16 09:44:53;;;;;;;11.52;3.92;;;;;;;;;;5110209;28;20027;-73
2022/04/16 09:47:25;;;;;;;9.70;3.20;;;;;;;;;;5109184;28;20444;-73
2022/04/16 09:49:53;;;;;;;7.65;3.38;;;;;;;;;;5110367;28;20051;-68
2022/04/16 09:52:22;;;;;;;9.38;3.70;;;;;;;;;;5109845;28;20049;-73
2022/04/16 09:54:50;;;;;;;8.68;3.70;;;;;;;;;;5110034;28;20035;-72
2022/04/16 09:57:21;;;;;;;9.70;3.70;;;;;;;;;;5108797;28;20055;-68
2022/04/16 09:59:52;;;;;;;13.73;3.60;;;;;;;;;;5110275;28;20110;-74
2022/04/16 10:02:18;;;;;;;9.90;3.40;;;;;;;;;;5110449;28;20028;-74
2022/04/16 10:04:45;;;;;;;14.73;3.35;;;;;;;;;;5110504;28;20265;-75
2022/04/16 10:07:11;;;;;;;8.73;3.72;;;;;;;;;;5110228;28;20036;-73
2022/04/16 10:09:41;;;;;;;10.73;3.90;;;;;;;;;;5113359;28;20034;-73
2022/04/16 10:15:17;;;;;;;16.48;4.90;;;;;;;;;;5114207;27;20032;-70
2022/04/16 10:17:52;;;;;;;12.63;5.22;;;;;;;;;;5114001;27;20515;-68
2022/04/16 10:20:23;;;;;;;12.45;5.28;;;;;;;;;;5113874;28;20103;-74
2022/04/16 10:23:03;;;;;;;14.13;6.20;;;;;;;;;;5113678;28;20072;-73
2022/04/16 10:25:34;;;;;;;18.33;6.63;;;;;;;;;;5113594;28;20049;-69
2022/04/16 10:28:08;;;;;;;15.27;6.32;;;;;;;;;;5113585;28;20035;-77
2022/04/16 10:30:39;;;;;;;18.52;6.32;;;;;;;;;;5113382;28;20148;-71
2022/04/16 10:33:18;;;;;;;13.88;6.05;;;;;;;;;;5113818;28;20088;-68
2022/04/16 10:35:57;;;;;;;13.60;5.53;;;;;;;;;;5113618;28;20038;-67
2022/04/16 10:38:32;;;;;;;17.23;5.45;;;;;;;;;;5113661;28;20483;-75
2022/04/16 10:41:00;;;;;;;14.73;5.60;;;;;;;;;;5113291;28;20028;-76
2022/04/16 10:43:28;;;;;;;13.38;5.70;;;;;;;;;;5113577;28;20027;-73
2022/04/16 10:45:59;;;;;;;14.57;5.38;;;;;;;;;;5113101;28;20383;-67
2022/04/16 10:48:25;;;;;;;12.35;5.05;;;;;;;;;;5113301;28;20406;-71
2022/04/16 10:50:52;;;;;;;11.68;4.60;;;;;;;;;;5113088;28;20592;-70
2022/04/16 10:53:27;;;;;;;14.68;5.55;;;;;;;;;;5113288;28;20030;-69
2022/04/16 10:55:53;;;;;;;11.95;5.70;;;;;;;;;;5113352;28;20038;-69
2022/04/16 10:58:26;;;;;;;15.13;6.43;;;;;;;;;;5113200;28;20382;-68
2022/04/16 11:01:04;;;;;;;15.70;6.40;;;;;;;;;;5112954;28;20016;-74
2022/04/16 11:03:33;;;;;;;17.25;6.60;;;;;;;;;;5112910;28;20382;-70
2022/04/16 11:06:03;;;;;;;16.60;6.70;;;;;;;;;;5111528;28;20414;-68
2022/04/16 11:08:29;;;;;;;14.63;6.55;;;;;;;;;;5113127;28;20038;-71
2022/04/16 11:10:58;;;;;;;16.60;6.70;;;;;;;;;;5112718;28;20578;-74
2022/04/16 11:13:25;;;;;;;17.27;6.97;;;;;;;;;;5113082;28;20032;-68
2022/04/16 11:15:51;;;;;;;16.20;7.05;;;;;;;;;;5112688;28;20035;-69
2022/04/16 11:18:18;;;;;;;21.00;7.00;;;;;;;;;;5112705;28;20034;-73
2022/04/16 11:20:52;;;;;;;19.40;7.43;;;;;;;;;;5111740;28;20035;-69
2022/04/16 11:23:18;;;;;;;19.30;7.28;;;;;;;;;;5112895;28;20046;-68
2022/04/16 11:34:20;;;;;;;19.02;7.32;;;;;;;;;;5112355;28;20668;-70
2022/04/16 11:36:53;;;;;;;18.92;7.43;;;;;;;;;;5112269;28;20043;-75
2022/04/16 11:39:26;;;;;;;18.42;7.45;;;;;;;;;;5112112;28;20098;-68
2022/04/16 11:41:59;;;;;;;25.13;8.10;;;;;;;;;;5111995;28;20034;-68
2022/04/16 11:44:50;;;;;;;16.83;6.95;;;;;;;;;;5112125;28;20130;-68
2022/04/16 11:47:27;;;;;;;15.43;6.82;;;;;;;;;;5109874;28;20044;-67
2022/04/16 11:49:53;;;;;;;18.60;6.70;;;;;;;;;;5112058;28;20031;-69
2022/04/16 11:52:30;;;;;;;16.58;7.00;;;;;;;;;;5111971;28;20031;-67
2022/04/16 11:55:15;;;;;;;16.63;7.05;;;;;;;;;;5111929;28;20032;-68
2022/04/16 11:57:46;;;;;;;16.00;7.00;;;;;;;;;;5112300;28;20055;-67
2022/04/16 12:00:12;;;;;;;17.13;7.05;;;;;;;;;;5111804;28;20455;-73
2022/04/16 12:02:47;;;;;;;19.58;7.05;;;;;;;;;;5111953;28;20027;-71
2022/04/16 12:05:15;;;;;;;17.88;7.22;;;;;;;;;;5111749;28;20561;-72
2022/04/16 12:07:46;;;;;;;18.52;7.50;;;;;;;;;;5111868;28;20032;-70
2022/04/16 12:10:16;;;;;;;19.45;7.28;;;;;;;;;;5111525;28;20027;-66
2022/04/16 12:12:50;;;;;;;17.67;6.72;;;;;;;;;;5111446;28;20552;-72
2022/04/16 12:15:25;;;;;;;17.10;7.43;;;;;;;;;;5111405;28;20024;-74
2022/04/16 12:17:52;;;;;;;18.05;6.65;;;;;;;;;;5111570;28;20058;-68
2022/04/16 12:20:20;;;;;;;17.95;7.22;;;;;;;;;;5111665;28;20589;-72
2022/04/16 12:22:56;;;;;;;18.67;7.82;;;;;;;;;;5111271;28;20020;-72
2022/04/16 12:25:24;;;;;;;19.48;7.28;;;;;;;;;;5111215;28;20130;-75
2022/04/16 12:27:54;;;;;;;15.65;6.38;;;;;;;;;;5111438;28;20387;-73
2022/04/16 12:30:24;;;;;;;17.75;7.10;;;;;;;;;;5111195;28;20223;-69
2022/04/16 12:33:03;;;;;;;19.15;7.63;;;;;;;;;;5110138;28;20023;-76
2022/04/16 12:35:30;;;;;;;17.23;6.43;;;;;;;;;;5111270;28;20038;-76
2022/04/16 12:37:57;;;;;;;16.50;6.40;;;;;;;;;;5111251;28;20024;-70
2022/04/16 12:40:23;;;;;;;17.17;6.50;;;;;;;;;;5111231;28;20399;-75
2022/04/16 12:42:50;;;;;;;25.83;7.22;;;;;;;;;;5111409;28;20536;-75
2022/04/16 12:45:16;;;;;;;18.40;7.90;;;;;;;;;;5111272;28;20020;-73
2022/04/16 12:47:42;;;;;;;19.00;7.65;;;;;;;;;;5110996;28;20509;-68
2022/04/16 12:50:09;;;;;;;16.35;6.63;;;;;;;;;;5110780;28;20023;-68
2022/04/16 12:52:35;;;;;;;19.73;6.63;;;;;;;;;;5110950;28;20039;-76
2022/04/16 12:55:00;;;;;;;16.42;6.55;;;;;;;;;;5110923;28;20023;-74
2022/04/16 12:57:26;;;;;;;20.67;6.82;;;;;;;;;;5111037;28;20049;-68
2022/04/16 12:59:51;;;;;;;16.38;6.38;;;;;;;;;;5110994;28;20085;-68
2022/04/16 13:02:16;;;;;;;15.68;6.28;;;;;;;;;;5110507;27;20386;-68
2022/04/16 13:04:42;;;;;;;14.55;6.45;;;;;;;;;;5110660;28;20502;-68
2022/04/16 13:07:07;;;;;;;15.57;6.53;;;;;;;;;;5110743;28;20027;-68
2022/04/16 13:09:33;;;;;;;14.75;6.18;;;;;;;;;;5110827;28;20016;-67
2022/04/16 13:11:58;;;;;;;22.35;7.18;;;;;;;;;;5110645;28;20019;-68
2022/04/16 13:14:24;;;;;;;15.93;6.57;;;;;;;;;;5110710;28;20069;-72
2022/04/16 13:16:49;;;;;;;17.70;7.03;;;;;;;;;;5110739;28;20016;-74
2022/04/16 13:19:15;;;;;;;15.18;6.78;;;;;;;;;;5110612;28;20511;-68
2022/04/16 13:21:42;;;;;;;15.70;6.00;;;;;;;;;;5110601;28;20028;-68
2022/04/16 13:24:14;;;;;;;14.07;6.40;;;;;;;;;;5110559;28;20086;-72
2022/04/16 13:26:40;;;;;;;16.25;5.65;;;;;;;;;;5110382;28;20085;-68
2022/04/16 13:29:05;;;;;;;14.35;6.13;;;;;;;;;;5110722;28;20028;-71
2022/04/16 13:31:32;;;;;;;17.92;6.20;;;;;;;;;;5110413;28;20024;-70
2022/04/16 13:33:57;;;;;;;14.88;5.60;;;;;;;;;;5110183;28;20047;-73
2022/04/16 13:36:23;;;;;;;14.20;6.38;;;;;;;;;;5110354;28;20112;-73
2022/04/16 13:38:48;;;;;;;14.40;6.18;;;;;;;;;;5110247;28;20047;-75
2022/04/16 13:43:58;;;;;;;19.40;6.88;;;;;;;;;;5112899;28;20057;-68
2022/04/16 13:46:24;;;;;;;16.58;6.78;;;;;;;;;;5114573;28;20035;-73
2022/04/16 13:48:49;;;;;;;17.58;6.95;;;;;;;;;;5114840;28;20023;-73
2022/04/16 13:51:14;;;;;;;14.55;6.60;;;;;;;;;;5114653;28;20093;-73
2022/04/16 13:53:40;;;;;;;21.55;7.88;;;;;;;;;;5114049;28;20487;-74
2022/04/16 13:56:07;;;;;;;17.58;7.20;;;;;;;;;;5114665;28;20027;-73
2022/04/16 13:58:33;;;;;;;20.35;7.53;;;;;;;;;;5114085;28;20055;-73
2022/04/16 14:00:59;;;;;;;17.95;6.65;;;;;;;;;;5114114;27;20058;-68
2022/04/16 14:03:24;;;;;;;15.70;6.18;;;;;;;;;;5114360;28;20055;-72
2022/04/16 14:05:50;;;;;;;17.58;6.70;;;;;;;;;;5114048;28;20423;-72
2022/04/16 14:08:16;;;;;;;17.35;5.60;;;;;;;;;;5114167;28;20480;-74
2022/04/16 14:10:43;;;;;;;17.98;6.18;;;;;;;;;;5114053;28;20391;-75
2022/04/16 14:13:08;;;;;;;17.05;6.22;;;;;;;;;;5113754;28;20506;-68
2022/04/16 14:15:35;;;;;;;16.05;6.50;;;;;;;;;;5114280;28;20016;-74
2022/04/16 14:18:01;;;;;;;15.00;6.15;;;;;;;;;;5113902;27;20023;-71
2022/04/16 14:20:26;;;;;;;16.48;6.40;;;;;;;;;;5114229;28;20073;-67
2022/04/16 14:22:52;;;;;;;17.30;5.95;;;;;;;;;;5113782;28;20080;-73
2022/04/16 14:25:17;;;;;;;14.98;6.00;;;;;;;;;;5113606;28;20415;-74
2022/04/16 14:27:44;;;;;;;15.10;5.65;;;;;;;;;;5114234;28;20076;-71
2022/04/16 14:30:10;;;;;;;16.50;6.20;;;;;;;;;;5113617;28;20544;-68
2022/04/16 14:32:37;;;;;;;20.40;6.90;;;;;;;;;;5113582;28;20489;-70
2022/04/16 14:35:03;;;;;;;15.13;6.28;;;;;;;;;;5113890;28;20031;-68
2022/04/16 14:37:29;;;;;;;17.52;6.53;;;;;;;;;;5112330;28;20076;-68
2022/04/16 14:39:54;;;;;;;15.40;5.88;;;;;;;;;;5113735;28;20024;-74
2022/04/16 14:42:20;;;;;;;15.45;6.45;;;;;;;;;;5113393;28;20027;-71
2022/04/16 14:44:51;;;;;;;18.25;6.20;;;;;;;;;;5113375;28;20024;-74
2022/04/16 14:47:17;;;;;;;21.48;7.03;;;;;;;;;;5113256;28;20028;-71
2022/04/16 14:49:43;;;;;;;20.30;6.18;;;;;;;;;;5113112;28;20020;-76
2022/04/16 14:52:11;;;;;;;16.83;5.82;;;;;;;;;;5113107;28;20384;-68
2022/04/16 14:54:36;;;;;;;15.55;6.22;;;;;;;;;;5112044;28;20050;-73
2022/04/16 14:57:02;;;;;;;16.85;6.00;;;;;;;;;;5113105;28;20373;-71
2022/04/16 14:59:27;;;;;;;16.40;6.13;;;;;;;;;;5113397;28;20391;-72
2022/04/16 15:01:52;;;;;;;16.92;6.63;;;;;;;;;;5113003;28;20100;-73
2022/04/16 15:04:19;;;;;;;16.05;6.80;;;;;;;;;;5112821;28;20026;-69
2022/04/16 15:06:45;;;;;;;20.40;6.72;;;;;;;;;;5112879;27;20058;-74
2022/04/16 15:09:11;;;;;;;16.95;7.20;;;;;;;;;;5112951;28;20023;-75